CST,Max TemperatureF,Mean TemperatureF,Min TemperatureF,Max Dew PointF,MeanDew PointF,Min DewpointF,Max Humidity, Mean Humidity, Min Humidity, Max Sea Level PressureIn, Mean Sea Level PressureIn, Min Sea Level PressureIn, Max VisibilityMiles, Mean VisibilityMiles, Min VisibilityMiles, Max Wind SpeedMPH, Mean Wind SpeedMPH, Max Gust SpeedMPH,PrecipitationIn, CloudCover, Events, WindDirDegrees
2012-1-1,52,42,32,36,22,10,79,54,28,30.41,30.19,29.76,10,10,10,28,19,40,0.00,2,,299
2012-1-2,34,27,20,13,6,1,60,43,25,30.53,30.46,30.39,10,10,10,30,16,39,0.00,0,,309
2012-1-3,42,28,13,12,8,3,80,50,20,30.53,30.34,30.13,10,10,10,20,10,25,0.00,0,,195
2012-1-4,50,40,30,31,24,13,64,54,43,30.23,30.14,30.07,10,10,10,21,12,31,0.00,0,,263
2012-1-5,65,48,30,29,27,24,78,52,26,30.17,30.04,29.88,10,10,10,20,12,24,0.00,0,,221
2012-1-6,68,55,42,32,30,26,62,42,21,29.94,29.84,29.75,10,10,10,23,13,30,0.00,0,,241
2012-1-7,52,42,32,29,24,20,72,51,30,30.20,30.11,29.94,10,10,10,10,5,21,0.00,0,,360
2012-1-8,42,35,27,30,28,24,85,73,60,30.30,30.24,30.19,10,10,7,12,7,14,0.00,5,,55
2012-1-9,49,35,21,32,24,20,100,67,34,30.26,30.20,30.12,10,7,2,10,3,13,0.00,0,,292
2012-1-10,56,39,22,31,24,19,85,56,27,30.12,29.95,29.70,10,10,10,10,5,12,T,1,,104
2012-1-11,56,43,30,35,30,23,92,61,30,29.74,29.63,29.55,10,10,8,23,8,31,0.01,4,Rain,301
2012-1-12,30,23,15,23,13,6,88,75,61,29.98,29.82,29.73,10,4,1,28,17,38,0.01,8,Snow,293
2012-1-13,27,20,13,12,8,5,73,60,46,30.16,30.06,29.97,10,10,5,21,10,25,T,4,Snow,263
2012-1-14,39,29,18,22,17,11,91,95,99,30.29,30.09,29.94,10,10,9,18,10,28,0.00,2,,213
2012-1-15,49,35,21,31,24,18,88,63,38,30.31,30.17,30.00,10,10,10,28,16,36,0.00,0,,170
2012-1-16,68,56,44,55,45,31,86,69,52,29.96,29.78,29.66,10,10,10,29,17,37,0.00,2,,189
2012-1-17,61,41,20,55,34,13,92,78,63,30.38,29.93,29.59,10,8,1,31,16,40,0.58,6,Rain-Thunderstorm,290
2012-1-18,36,24,12,17,12,9,92,64,35,30.38,30.18,29.98,10,10,10,20,8,23,0.00,1,,193
2012-1-19,43,32,20,24,19,14,75,60,45,30.08,29.97,29.88,10,10,10,17,9,22,0.00,0,,48
2012-1-20,34,26,17,26,20,13,92,79,66,30.04,29.94,29.80,10,9,4,17,11,22,0.00,6,,58
2012-1-21,30,24,18,25,19,14,92,81,69,30.20,30.08,29.94,10,8,5,20,9,28,0.00,7,,53
2012-1-22,54,41,28,49,39,25,100,89,77,29.92,29.67,29.41,10,6,0,26,16,36,0.00,8,Fog,164
2012-1-23,53,41,28,39,29,23,85,66,46,30.10,29.82,29.43,10,10,9,33,15,41,0.00,5,,277
2012-1-24,52,36,20,28,25,18,92,65,38,30.28,30.22,30.10,10,10,6,23,5,35,0.00,0,,96
2012-1-25,40,37,33,38,33,28,100,82,64,30.22,30.08,29.93,10,5,2,18,9,31,0.39,7,Rain,70
2012-1-26,40,37,33,37,34,31,100,91,82,29.90,29.83,29.73,10,4,0,29,7,32,0.09,6,Fog-Rain,310
2012-1-27,46,36,25,37,32,27,100,79,58,30.05,29.96,29.85,10,9,5,18,5,22,0.05,4,Rain,296
2012-1-28,42,34,26,32,23,18,100,71,41,30.35,30.26,30.09,10,10,6,21,11,28,T,1,,269
2012-1-29,50,40,29,24,19,16,64,45,26,30.27,30.23,30.17,10,10,10,16,9,21,0.00,0,,221
2012-1-30,65,51,37,43,32,24,64,50,36,30.15,30.04,29.96,10,10,10,23,14,29,0.00,0,,200
2012-1-31,62,55,47,51,43,31,86,66,46,30.01,29.95,29.89,10,10,10,25,13,32,0.00,5,,206